Terminal Aerodrome Forecast
Issued by NWS Cheyenne, WY

Home | Current Version | Previous Version | Text Only | Print | Product List | Glossary On
Versions: 1 2 3 4 5 6 7 8 9 10 11 12 13 14 15 16 17 18
000
FTUS45 KCYS 060521
TAFCYS
TAF
KCYS 060521Z 0606/0706 30012KT P6SM SCT100
     FM062100 07008KT P6SM VCSH OVC020
     FM070200 06007KT 2SM -SN OVC007=

USA.gov is the U.S. government's official web portal to all federal, state and local government web resources and services.